Time;durP1;ratioP1;P1;durP2;ratioP2;P2;SDS_P1;SDS_P2;PMS_P1;PMS_P2;Temp;Humidity;BMP_temperature;BMP_pressure;BME280_temperature;BME280_humidity;BME280_pressure;Samples;Min_cycle;Max_cycle;Signal;HPM_P1;HPM_P2
2020/12/02 00:00:13;;;;;;;20.83;12.52;;;;;;;2.02;87.35;97904.66;5058856;28;45503;-82
2020/12/02 00:02:54;;;;;;;25.15;13.65;;;;;;;2.24;86.11;97900.50;5059029;28;45513;-81
2020/12/02 00:05:20;;;;;;;24.85;14.55;;;;;;;2.24;86.35;97903.13;5059113;28;45476;-82
2020/12/02 00:08:02;;;;;;;26.08;14.90;;;;;;;2.31;85.66;97906.97;5058728;28;45482;-81
2020/12/02 00:10:27;;;;;;;26.80;15.05;;;;;;;2.26;86.31;97897.75;5058404;28;45414;-81
2020/12/02 00:12:53;;;;;;;25.65;14.93;;;;;;;2.33;86.04;97897.19;5058994;28;45264;-82
2020/12/02 00:15:18;;;;;;;26.25;15.48;;;;;;;2.33;85.56;97893.72;5038574;28;45262;-81
2020/12/02 00:17:44;;;;;;;25.77;15.35;;;;;;;2.36;85.21;97897.91;5051092;28;45264;-81
2020/12/02 00:20:09;;;;;;;24.73;15.25;;;;;;;2.33;85.72;97897.19;5058294;28;46193;-80
2020/12/02 00:22:36;;;;;;;24.10;14.70;;;;;;;2.31;85.57;97906.13;5058301;28;45262;-82
2020/12/02 00:25:05;;;;;;;25.95;16.10;;;;;;;2.33;85.47;97901.59;5058585;28;45400;-82
2020/12/02 00:27:31;;;;;;;25.63;15.63;;;;;;;2.26;85.42;97903.84;5058554;28;45163;-81
2020/12/02 00:29:57;;;;;;;26.35;15.30;;;;;;;2.19;86.12;97892.09;5058375;28;46381;-81
2020/12/02 00:32:35;;;;;;;28.70;15.95;;;;;;;2.17;86.20;97891.38;5058080;28;45290;-82
2020/12/02 00:35:00;;;;;;;25.08;14.75;;;;;;;2.13;86.43;97893.41;5045247;28;45293;-81
2020/12/02 00:37:29;;;;;;;27.05;14.57;;;;;;;2.17;86.33;97889.59;5056796;28;45586;-81
2020/12/02 00:39:55;;;;;;;19.15;11.75;;;;;;;2.17;85.62;97894.00;5058523;28;45948;-81
2020/12/02 00:42:21;;;;;;;21.63;12.82;;;;;;;2.13;86.30;97888.16;5057052;28;45428;-83
2020/12/02 00:44:48;;;;;;;19.20;11.38;;;;;;;2.16;85.47;97882.69;5058636;28;45296;-82
2020/12/02 00:47:23;;;;;;;14.65;9.25;;;;;;;2.32;84.36;97879.78;5058270;28;45207;-81
2020/12/02 00:49:51;;;;;;;12.63;8.10;;;;;;;2.43;83.36;97876.34;5058433;28;45667;-82
2020/12/02 00:52:17;;;;;;;17.40;10.75;;;;;;;2.53;83.93;97876.50;5057826;28;45264;-81
2020/12/02 00:54:44;;;;;;;22.00;12.15;;;;;;;2.51;84.54;97878.41;5058410;28;45343;-82
2020/12/02 00:57:17;;;;;;;15.77;8.70;;;;;;;2.56;83.48;97872.81;5056736;28;45369;-82
2020/12/02 00:59:49;;;;;;;12.93;7.97;;;;;;;2.65;82.42;97874.75;5057982;28;45529;-82
2020/12/02 01:02:23;;;;;;;11.95;7.32;;;;;;;2.69;82.17;97863.06;5057962;28;45283;-81
2020/12/02 01:04:48;;;;;;;11.63;7.03;;;;;;;2.75;81.51;97870.50;5058271;28;45324;-84
2020/12/02 01:07:15;;;;;;;11.68;7.65;;;;;;;2.71;81.54;97868.19;5057640;28;45218;-82
2020/12/02 01:09:41;;;;;;;19.35;9.98;;;;;;;2.78;82.31;97858.91;5057931;28;45486;-82
2020/12/02 01:12:12;;;;;;;13.48;8.85;;;;;;;2.81;82.59;97861.28;5057806;28;45279;-81
2020/12/02 01:14:38;;;;;;;12.15;7.75;;;;;;;2.86;80.79;97864.41;5058166;28;45167;-81
2020/12/02 01:17:04;;;;;;;14.27;8.80;;;;;;;2.90;82.31;97859.78;5057844;28;45494;-83
2020/12/02 01:19:33;;;;;;;13.10;7.57;;;;;;;2.91;80.79;97850.94;5057756;28;46317;-83
2020/12/02 01:22:08;;;;;;;11.55;7.60;;;;;;;2.95;80.85;97851.53;5057227;28;45395;-83
2020/12/02 01:24:44;;;;;;;10.93;6.97;;;;;;;2.93;81.11;97856.91;5056420;28;45350;-83
2020/12/02 01:27:45;;;;;;;12.93;8.05;;;;;;;2.92;80.52;97853.44;5063890;28;45305;-83
2020/12/02 01:30:13;;;;;;;;;;;;;;;3.01;78.77;97851.06;5045089;28;46450;-84
2020/12/02 01:32:41;;;;;;;12.02;7.30;;;;;;;3.02;79.05;97850.09;5057184;28;45495;-84
2020/12/02 01:35:09;;;;;;;10.95;6.22;;;;;;;3.05;78.85;97848.09;5057929;28;45360;-83
2020/12/02 01:37:43;;;;;;;11.05;6.40;;;;;;;3.05;78.86;97849.84;5057340;28;45342;-83
2020/12/02 01:40:27;;;;;;;11.10;6.82;;;;;;;3.08;78.38;97840.91;5057562;28;45542;-81
2020/12/02 01:43:01;;;;;;;11.02;7.13;;;;;;;3.08;78.74;97833.84;5057378;28;45485;-81
2020/12/02 01:45:45;;;;;;;11.77;7.38;;;;;;;3.08;78.83;97835.66;5056171;28;45292;-81
2020/12/02 01:48:23;;;;;;;9.35;6.53;;;;;;;3.11;78.43;97840.69;5057669;28;45422;-81
2020/12/02 01:51:04;;;;;;;10.27;6.60;;;;;;;3.11;78.29;97838.91;5057136;28;47451;-81
2020/12/02 01:53:54;;;;;;;13.35;7.53;;;;;;;3.03;77.03;97834.22;5073585;28;45357;-82
2020/12/02 01:56:30;;;;;;;12.88;7.40;;;;;;;3.10;77.39;97837.22;5061456;28;45339;-81
2020/12/02 01:58:55;;;;;;;11.68;6.53;;;;;;;3.08;77.59;97827.78;5060666;28;45312;-81
2020/12/02 02:01:45;;;;;;;10.40;6.97;;;;;;;3.04;78.12;97830.66;5061040;28;45420;-81
2020/12/02 02:04:18;;;;;;;11.73;7.07;;;;;;;3.02;78.38;97827.31;5060796;28;45269;-80
2020/12/02 02:07:03;;;;;;;12.20;7.45;;;;;;;2.99;81.24;97829.31;5060605;28;45446;-81
2020/12/02 02:09:29;;;;;;;12.25;7.97;;;;;;;2.81;81.96;97824.53;5045255;28;45547;-81
2020/12/02 02:12:29;;;;;;;11.30;7.05;;;;;;;2.68;80.35;97810.66;5060569;28;46258;-81
2020/12/02 02:15:03;;;;;;;10.32;6.72;;;;;;;2.84;80.09;97818.22;5050207;28;45485;-81
2020/12/02 02:17:28;;;;;;;12.88;7.70;;;;;;;2.81;80.16;97819.28;5060814;28;45288;-80
2020/12/02 02:19:54;;;;;;;11.95;7.65;;;;;;;2.73;81.47;97816.41;5059142;28;45487;-81
2020/12/02 02:22:19;;;;;;;10.20;6.72;;;;;;;2.78;81.79;97814.25;5060162;28;46070;-81
2020/12/02 02:24:47;;;;;;;19.95;12.13;;;;;;;2.45;83.17;97814.06;5060484;28;45301;-81
2020/12/02 02:27:13;;;;;;;23.50;14.27;;;;;;;2.51;83.46;97817.19;5060765;28;45302;-80
2020/12/02 02:29:40;;;;;;;22.17;14.07;;;;;;;2.59;82.73;97814.81;5059089;28;45503;-81
2020/12/02 02:32:10;;;;;;;21.33;13.65;;;;;;;2.66;82.70;97817.81;5060192;28;45857;-81
2020/12/02 02:34:38;;;;;;;23.90;13.68;;;;;;;2.65;82.71;97803.03;5060172;28;45419;-82
2020/12/02 02:37:06;;;;;;;22.08;12.90;;;;;;;2.43;84.55;97815.16;5059046;28;45323;-82
2020/12/02 02:39:32;;;;;;;20.88;12.93;;;;;;;2.39;84.55;97811.91;5060197;28;45424;-82
2020/12/02 02:42:06;;;;;;;22.90;13.80;;;;;;;2.29;85.79;97813.53;5060263;28;45459;-82
2020/12/02 02:44:32;;;;;;;23.15;13.38;;;;;;;2.38;84.93;97809.41;5038949;28;45263;-82
2020/12/02 02:46:57;;;;;;;25.27;14.20;;;;;;;2.41;84.12;97811.81;5051839;28;45267;-82
2020/12/02 02:49:23;;;;;;;22.90;13.68;;;;;;;2.29;85.51;97803.91;5060313;28;45615;-81
2020/12/02 02:51:50;;;;;;;24.63;15.05;;;;;;;2.27;85.41;97808.44;5059860;28;45567;-82
2020/12/02 02:54:15;;;;;;;21.27;13.80;;;;;;;2.42;84.68;97808.22;5060043;28;45288;-83
2020/12/02 02:56:41;;;;;;;24.92;14.82;;;;;;;2.50;83.90;97805.00;5060258;28;45482;-80
2020/12/02 02:59:06;;;;;;;27.02;15.18;;;;;;;2.44;85.17;97799.28;5058605;28;45360;-81
2020/12/02 03:01:34;;;;;;;24.95;15.15;;;;;;;2.54;84.65;97801.19;5060041;28;46505;-81
2020/12/02 03:03:59;;;;;;;24.52;15.00;;;;;;;2.43;85.25;97802.84;5059843;28;45468;-81
2020/12/02 03:06:25;;;;;;;22.58;13.98;;;;;;;2.46;84.34;97794.75;5045861;28;45298;-81
2020/12/02 03:08:51;;;;;;;21.60;13.60;;;;;;;2.60;83.57;97783.19;5059616;28;45288;-81
2020/12/02 03:11:17;;;;;;;22.95;13.80;;;;;;;2.63;83.83;97785.59;5059960;28;45207;-81
2020/12/02 03:13:51;;;;;;;21.50;13.60;;;;;;;2.55;83.34;97776.63;5059770;28;45422;-81
2020/12/02 03:16:36;;;;;;;25.05;14.68;;;;;;;2.55;83.11;97772.22;5059947;28;45247;-81
2020/12/02 03:19:22;;;;;;;25.15;14.95;;;;;;;2.52;83.93;97779.47;5048567;28;45366;-81
2020/12/02 03:21:51;;;;;;;26.15;14.90;;;;;;;2.55;83.46;97776.63;5057821;28;47287;-80
2020/12/02 03:24:17;;;;;;;23.88;14.38;;;;;;;2.59;82.94;97765.78;5059578;28;45356;-81
2020/12/02 03:26:46;;;;;;;22.17;13.40;;;;;;;2.58;83.43;97764.09;5039214;28;45377;-81
2020/12/02 03:29:12;;;;;;;22.73;13.60;;;;;;;2.40;84.71;97763.72;5052450;28;45462;-80
2020/12/02 03:31:39;;;;;;;21.08;13.18;;;;;;;2.50;83.77;97768.25;5059402;28;46306;-80
2020/12/02 03:34:09;;;;;;;23.50;13.13;;;;;;;2.27;84.21;97765.59;5061897;28;45331;-80
2020/12/02 03:36:35;;;;;;;22.98;14.38;;;;;;;2.44;83.66;97765.16;5046730;28;45510;-80
2020/12/02 03:39:00;;;;;;;17.10;10.30;;;;;;;2.55;83.04;97766.13;5059301;28;45469;-80
2020/12/02 03:41:26;;;;;;;12.05;8.23;;;;;;;2.60;81.23;97761.34;5059454;28;45253;-80
2020/12/02 03:43:51;;;;;;;13.35;8.80;;;;;;;2.62;81.87;97752.41;5059230;28;45202;-80
2020/12/02 03:46:16;;;;;;;16.20;9.63;;;;;;;2.38;82.94;97751.66;5050775;28;45322;-80
2020/12/02 03:48:42;;;;;;;15.27;9.43;;;;;;;1.93;85.67;97749.75;5053321;28;45393;-80
2020/12/02 03:51:08;;;;;;;15.40;9.95;;;;;;;2.14;85.91;97758.63;5059174;28;46362;-80
2020/12/02 03:53:33;;;;;;;17.75;10.88;;;;;;;2.24;84.99;97745.69;5057560;28;45330;-80
2020/12/02 03:55:59;;;;;;;15.73;10.15;;;;;;;2.14;85.06;97756.00;5059311;28;45225;-80
2020/12/02 03:58:24;;;;;;;12.73;8.35;;;;;;;2.32;84.12;97745.09;5059081;28;45308;-80
2020/12/02 04:00:50;;;;;;;14.48;9.32;;;;;;;2.44;82.95;97748.56;5058704;28;45209;-81
2020/12/02 04:03:16;;;;;;;10.63;6.50;;;;;;;2.51;78.99;97757.66;5062468;28;45291;-83
2020/12/02 04:05:41;;;;;;;9.40;5.90;;;;;;;2.61;77.94;97749.88;5054394;28;46687;-80
2020/12/02 04:08:07;;;;;;;11.50;6.35;;;;;;;2.63;78.54;97751.47;5052685;28;45474;-80
2020/12/02 04:10:33;;;;;;;10.90;6.68;;;;;;;2.60;77.89;97749.06;5074132;28;46829;-80
2020/12/02 04:12:58;;;;;;;14.10;8.90;;;;;;;2.58;80.14;97752.75;5058909;28;45325;-80
2020/12/02 04:15:25;;;;;;;14.60;9.55;;;;;;;2.29;81.00;97745.31;5058824;28;45356;-80
2020/12/02 04:17:51;;;;;;;22.50;13.57;;;;;;;2.04;83.78;97749.78;5058688;28;45258;-80
2020/12/02 04:20:20;;;;;;;23.65;14.95;;;;;;;1.60;85.81;97752.94;5058469;28;45504;-80
2020/12/02 04:22:48;;;;;;;25.90;15.88;;;;;;;1.64;86.19;97756.19;5058239;28;45490;-80
2020/12/02 04:25:14;;;;;;;23.17;14.27;;;;;;;1.48;87.21;97748.59;5058626;28;45344;-80
2020/12/02 04:27:41;;;;;;;25.00;15.20;;;;;;;1.52;87.26;97764.94;5058682;28;45529;-81
2020/12/02 04:30:07;;;;;;;23.90;14.85;;;;;;;1.61;86.62;97753.78;5058894;28;45939;-80
2020/12/02 04:32:33;;;;;;;23.17;13.98;;;;;;;1.75;85.81;97748.38;5058084;28;45306;-81
2020/12/02 04:35:01;;;;;;;22.85;14.18;;;;;;;1.68;86.73;97755.00;5058633;28;45217;-80
2020/12/02 04:37:29;;;;;;;27.02;15.38;;;;;;;1.35;86.83;97764.38;5058170;28;45352;-81
2020/12/02 04:39:55;;;;;;;25.25;15.13;;;;;;;1.36;88.54;97747.69;5058481;28;46371;-80
2020/12/02 04:42:24;;;;;;;27.40;15.90;;;;;;;1.47;88.01;97759.19;5058152;28;45384;-80
2020/12/02 04:44:50;;;;;;;24.40;14.63;;;;;;;1.69;86.84;97748.81;5057167;28;45277;-80
2020/12/02 04:47:16;;;;;;;26.45;15.52;;;;;;;1.62;87.12;97751.97;5043556;28;45282;-80
2020/12/02 04:49:41;;;;;;;25.38;15.00;;;;;;;1.44;87.60;97749.75;5058473;28;45333;-80
2020/12/02 04:52:13;;;;;;;22.83;14.25;;;;;;;1.74;87.11;97753.72;5057852;28;45355;-80
2020/12/02 04:54:39;;;;;;;29.10;15.85;;;;;;;1.88;86.42;97757.94;5058540;28;45275;-80
2020/12/02 04:57:06;;;;;;;27.35;15.77;;;;;;;1.75;87.25;97752.75;5058077;28;45613;-80
2020/12/02 04:59:40;;;;;;;24.80;15.57;;;;;;;1.78;87.07;97751.72;5058049;28;46054;-80
2020/12/02 05:02:06;;;;;;;25.30;15.07;;;;;;;1.69;87.39;97740.09;5058023;28;45436;-80
2020/12/02 05:04:32;;;;;;;24.27;15.50;;;;;;;1.47;88.49;97751.34;5058327;28;45340;-80
2020/12/02 05:07:13;;;;;;;26.50;15.35;;;;;;;1.44;88.97;97747.13;5057717;28;45446;-80
2020/12/02 05:10:08;;;;;;;26.67;16.23;;;;;;;1.70;88.06;97752.25;5058006;28;45317;-80
2020/12/02 05:12:42;;;;;;;24.88;15.05;;;;;;;1.60;87.21;97758.19;5046870;28;45416;-80
2020/12/02 05:15:23;;;;;;;25.77;15.63;;;;;;;1.17;88.85;97761.28;5057993;28;45207;-80
2020/12/02 05:18:02;;;;;;;27.73;16.73;;;;;;;1.35;87.78;97760.91;5056604;28;45290;-80
2020/12/02 05:20:28;;;;;;;29.83;17.20;;;;;;;1.80;86.90;97757.69;5044823;28;46177;-80
2020/12/02 05:22:53;;;;;;;30.38;17.00;;;;;;;1.94;85.78;97748.81;5057266;28;45172;-81
2020/12/02 05:25:19;;;;;;;27.10;16.25;;;;;;;1.81;86.06;97746.25;5057974;28;45159;-80
2020/12/02 05:27:52;;;;;;;29.00;16.63;;;;;;;1.78;87.31;97744.69;5057227;28;45361;-80
2020/12/02 05:30:31;;;;;;;28.38;16.88;;;;;;;1.69;87.30;97746.19;5057887;28;46525;-79
2020/12/02 05:33:10;;;;;;;25.45;15.85;;;;;;;1.87;85.83;97741.38;5055742;28;45525;-80
2020/12/02 05:35:38;;;;;;;27.60;16.60;;;;;;;1.97;85.26;97745.94;5057812;28;45292;-79
2020/12/02 05:38:07;;;;;;;26.15;15.93;;;;;;;2.07;84.73;97744.31;5057394;28;45403;-80
2020/12/02 05:40:34;;;;;;;28.48;17.13;;;;;;;2.08;84.65;97738.13;5057393;28;45349;-80
2020/12/02 05:43:17;;;;;;;25.83;16.27;;;;;;;2.14;84.24;97739.44;5056142;28;45279;-80
2020/12/02 05:45:47;;;;;;;25.08;16.13;;;;;;;2.02;84.37;97741.19;5057602;28;45500;-80
2020/12/02 05:48:20;;;;;;;27.90;15.88;;;;;;;1.94;84.46;97748.81;5057593;28;45163;-80
2020/12/02 05:50:47;;;;;;;26.33;15.95;;;;;;;1.98;84.39;97755.50;5057334;28;45434;-80
2020/12/02 05:53:23;;;;;;;25.58;15.25;;;;;;;1.88;85.09;97748.31;5057305;28;45296;-80
2020/12/02 05:55:49;;;;;;;26.95;15.77;;;;;;;2.01;84.32;97748.22;5057424;28;45379;-81
2020/12/02 05:58:22;;;;;;;25.40;15.98;;;;;;;2.06;84.05;97745.25;5057431;28;45483;-80
2020/12/02 06:00:47;;;;;;;26.63;16.90;;;;;;;2.08;83.62;97753.00;5055411;28;46475;-80
2020/12/02 06:03:17;;;;;;;28.63;16.08;;;;;;;2.03;84.08;97746.31;5052161;28;45298;-80
2020/12/02 06:05:42;;;;;;;27.88;15.70;;;;;;;2.05;83.64;97754.09;5053890;28;45463;-80
2020/12/02 06:08:10;;;;;;;28.70;16.67;;;;;;;2.07;83.87;97753.94;5055265;28;45521;-79
2020/12/02 06:10:41;;;;;;;23.67;14.85;;;;;;;2.10;83.81;97756.34;5055156;28;45340;-79
2020/12/02 06:13:10;;;;;;;23.90;15.25;;;;;;;2.06;83.61;97755.75;5058405;28;45474;-80
2020/12/02 06:15:38;;;;;;;26.05;15.07;;;;;;;2.04;83.31;97755.84;5053526;28;45413;-80
2020/12/02 06:18:19;;;;;;;26.35;15.13;;;;;;;2.08;83.56;97759.09;5058233;28;45487;-80
2020/12/02 06:20:46;;;;;;;26.23;15.48;;;;;;;1.96;83.94;97760.84;5043387;28;46548;-81
2020/12/02 06:23:12;;;;;;;25.98;14.77;;;;;;;2.03;83.72;97764.69;5067319;28;45305;-80
2020/12/02 06:25:53;;;;;;;26.90;15.90;;;;;;;1.98;84.32;97774.69;5057054;28;45395;-81
2020/12/02 06:28:21;;;;;;;24.92;15.40;;;;;;;2.02;83.39;97770.88;5054246;28;45588;-81
2020/12/02 06:31:16;;;;;;;26.33;16.08;;;;;;;2.08;83.69;97779.22;5051735;28;45361;-81
2020/12/02 06:33:44;;;;;;;23.95;15.52;;;;;;;1.73;84.93;97786.13;5050430;28;45457;-81
2020/12/02 06:36:18;;;;;;;26.48;14.98;;;;;;;1.98;84.32;97786.97;5055136;28;45447;-85
2020/12/02 06:38:46;;;;;;;23.35;15.05;;;;;;;1.98;83.39;97781.72;5048828;28;45240;-85
2020/12/02 06:41:22;;;;;;;23.35;14.52;;;;;;;2.07;83.30;97775.78;5066183;28;45275;-80
2020/12/02 06:43:55;;;;;;;25.17;15.00;;;;;;;2.04;83.63;97781.25;5074046;28;45415;-79
2020/12/02 06:46:56;;;;;;;24.40;15.02;;;;;;;2.07;83.06;97783.66;5065494;28;45548;-79
2020/12/02 06:49:24;;;;;;;24.83;14.68;;;;;;;1.98;83.89;97777.28;5058875;27;45454;-78
2020/12/02 06:51:56;;;;;;;26.17;14.75;;;;;;;1.96;83.95;97779.19;5070084;28;46053;-79
2020/12/02 06:54:22;;;;;;;24.95;13.63;;;;;;;2.01;83.13;97782.31;5064610;28;45423;-79
2020/12/02 06:56:55;;;;;;;23.45;13.20;;;;;;;1.84;84.05;97774.84;5061886;28;45435;-79
2020/12/02 06:59:20;;;;;;;26.70;13.98;;;;;;;1.93;83.44;97768.94;5057140;28;45683;-78
2020/12/02 07:01:48;;;;;;;24.17;14.00;;;;;;;2.00;83.88;97769.31;5058926;28;46875;-78
2020/12/02 07:04:23;;;;;;;21.48;12.75;;;;;;;1.81;84.37;97775.09;5046528;28;45844;-79
2020/12/02 07:06:59;;;;;;;24.73;13.57;;;;;;;1.66;84.81;97774.41;5057283;28;45510;-80
2020/12/02 07:09:24;;;;;;;25.17;13.05;;;;;;;1.88;83.49;97778.94;5062972;28;45526;-81
2020/12/02 07:12:02;;;;;;;22.20;13.32;;;;;;;1.83;83.88;97770.56;5061528;28;47224;-82
2020/12/02 07:14:36;;;;;;;22.40;13.23;;;;;;;1.91;84.24;97776.06;5056665;28;45489;-80
2020/12/02 07:17:10;;;;;;;22.13;12.73;;;;;;;2.04;83.06;97776.03;5058966;28;45329;-82
2020/12/02 07:19:39;;;;;;;22.55;12.98;;;;;;;2.10;82.60;97780.81;5057730;28;45243;-81
2020/12/02 07:22:17;;;;;;;30.65;15.63;;;;;;;2.09;82.72;97783.53;5067646;27;46169;-81
2020/12/02 07:24:48;;;;;;;23.05;14.10;;;;;;;1.99;82.71;97780.78;5062189;28;45484;-80
2020/12/02 07:27:16;;;;;;;28.00;19.02;;;;;;;2.07;82.82;97782.81;5057573;28;45733;-80
2020/12/02 07:29:42;;;;;;;29.33;15.70;;;;;;;2.08;82.37;97785.34;5058952;28;45566;-80
2020/12/02 07:32:18;;;;;;;23.40;14.05;;;;;;;2.09;82.80;97788.78;5063147;28;45481;-80
2020/12/02 07:34:44;;;;;;;28.25;16.50;;;;;;;2.07;82.12;97790.69;5062980;28;45485;-80
2020/12/02 07:37:17;;;;;;;27.48;14.32;;;;;;;2.07;82.87;97790.69;5058773;28;45483;-80
2020/12/02 07:39:51;;;;;;;32.03;18.15;;;;;;;2.04;82.62;97787.34;5058690;28;45211;-80
2020/12/02 07:42:30;;;;;;;25.23;14.30;;;;;;;2.09;82.26;97797.50;5058400;28;48493;-80
2020/12/02 07:45:14;;;;;;;24.33;14.57;;;;;;;1.99;82.66;97794.72;5060422;27;45452;-81
2020/12/02 07:47:47;;;;;;;22.23;13.02;;;;;;;2.10;82.01;97798.31;5063640;28;45427;-81
2020/12/02 07:50:46;;;;;;;22.80;13.95;;;;;;;2.10;82.49;97800.94;5063717;28;45437;-81
2020/12/02 07:53:30;;;;;;;22.45;13.30;;;;;;;2.17;82.39;97796.91;5062691;28;45771;-80
2020/12/02 07:55:57;;;;;;;22.38;13.50;;;;;;;2.12;81.95;97801.66;5059014;28;45279;-81
2020/12/02 07:58:33;;;;;;;21.45;12.60;;;;;;;2.21;82.48;97801.00;5059474;28;45347;-80
2020/12/02 08:01:08;;;;;;;23.52;13.13;;;;;;;2.17;82.46;97797.78;5057893;27;45395;-80
2020/12/02 08:03:37;;;;;;;24.17;13.18;;;;;;;2.19;82.05;97806.34;5062367;28;45496;-80
2020/12/02 08:06:14;;;;;;;23.27;13.73;;;;;;;2.15;82.30;97802.28;5053980;28;45482;-80
2020/12/02 08:08:40;;;;;;;29.83;15.32;;;;;;;2.13;82.79;97798.94;5058661;28;45404;-79
2020/12/02 08:11:14;;;;;;;29.70;17.33;;;;;;;2.04;82.68;97795.19;5058150;28;45724;-85
2020/12/02 08:13:47;;;;;;;38.15;21.70;;;;;;;2.10;83.75;97806.19;5057013;28;45616;-84
2020/12/02 08:16:22;;;;;;;35.90;19.65;;;;;;;2.08;83.56;97800.22;5058871;28;45501;-82
2020/12/02 08:18:54;;;;;;;33.38;19.55;;;;;;;2.11;83.52;97792.13;5056510;28;45542;-85
2020/12/02 08:21:23;;;;;;;33.55;17.42;;;;;;;1.84;85.85;97798.47;5057376;28;45396;-82
2020/12/02 08:24:16;;;;;;;29.45;16.52;;;;;;;1.65;86.89;97797.19;5053957;28;45555;-82
2020/12/02 08:26:42;;;;;;;27.38;16.02;;;;;;;1.71;86.88;97804.59;5057318;28;45356;-81
2020/12/02 08:29:10;;;;;;;27.38;16.05;;;;;;;1.44;87.23;97804.78;5056044;28;45794;-82
2020/12/02 08:31:37;;;;;;;31.05;16.58;;;;;;;1.40;88.42;97817.28;5055285;28;45653;-83
2020/12/02 08:34:31;;;;;;;30.15;17.38;;;;;;;1.44;87.27;97804.78;5051614;28;45877;-83
2020/12/02 08:37:22;;;;;;;25.05;14.68;;;;;;;1.39;86.94;97807.75;5055481;28;45424;-83
2020/12/02 08:39:51;;;;;;;28.60;15.57;;;;;;;1.75;87.81;97808.66;5051732;28;45388;-83
2020/12/02 08:42:31;;;;;;;29.42;15.75;;;;;;;1.87;86.94;97811.34;5053236;28;45596;-83
2020/12/02 08:45:23;;;;;;;24.85;15.32;;;;;;;2.05;85.96;97806.56;5055504;28;45460;-83
2020/12/02 08:47:57;;;;;;;27.73;15.68;;;;;;;1.66;87.26;97806.72;5041219;28;45455;-83
2020/12/02 08:50:29;;;;;;;26.13;15.27;;;;;;;1.83;86.53;97816.00;5055319;28;45406;-83
2020/12/02 08:52:59;;;;;;;24.83;14.40;;;;;;;2.02;86.00;97819.88;5056804;28;45436;-83
2020/12/02 08:55:26;;;;;;;23.85;14.23;;;;;;;1.86;86.22;97807.06;5069095;28;45397;-81
2020/12/02 08:57:52;;;;;;;27.17;16.05;;;;;;;2.03;86.40;97801.41;5051682;28;45547;-80
2020/12/02 09:00:22;;;;;;;24.60;14.90;;;;;;;2.21;86.39;97810.66;5055714;28;45451;-83
2020/12/02 09:02:48;;;;;;;26.92;14.32;;;;;;;2.19;85.92;97808.97;5057452;28;45369;-86
2020/12/02 09:05:14;;;;;;;31.08;15.15;;;;;;;2.16;85.76;97809.22;5058179;28;45508;-86
2020/12/02 09:07:40;;;;;;;25.65;14.60;;;;;;;2.01;85.99;97813.78;5056878;28;45360;-85
2020/12/02 09:10:06;;;;;;;28.13;15.75;;;;;;;1.68;86.67;97803.97;5058508;28;45442;-83
2020/12/02 09:12:32;;;;;;;27.17;14.93;;;;;;;2.12;85.16;97797.28;5057118;28;45416;-84
2020/12/02 09:14:57;;;;;;;25.38;14.07;;;;;;;2.28;84.92;97804.84;5048086;28;47047;-84
2020/12/02 09:17:23;;;;;;;24.23;15.25;;;;;;;2.33;85.02;97810.59;5056920;28;46677;-89
2020/12/02 09:19:50;;;;;;;25.63;14.50;;;;;;;2.14;83.57;97815.50;5057881;28;45384;-88
2020/12/02 09:22:20;;;;;;;25.60;15.57;;;;;;;2.14;85.29;97818.13;5057340;28;45513;-84
2020/12/02 09:24:47;;;;;;;24.88;14.43;;;;;;;2.13;85.48;97822.56;5056828;28;46187;-86
2020/12/02 09:27:12;;;;;;;26.23;14.70;;;;;;;2.00;85.55;97817.38;5083388;27;45311;-85
2020/12/02 09:29:38;;;;;;;25.60;15.40;;;;;;;1.96;86.05;97812.47;5063909;27;45217;-86
2020/12/02 09:32:04;;;;;;;26.77;15.27;;;;;;;2.29;85.00;97816.16;5066396;27;45304;-83
2020/12/02 09:34:29;;;;;;;26.58;15.32;;;;;;;2.06;86.01;97810.00;5070147;28;46161;-85
2020/12/02 09:36:55;;;;;;;26.70;15.10;;;;;;;2.17;84.97;97817.91;5067536;28;45158;-85
2020/12/02 09:39:21;;;;;;;28.83;15.13;;;;;;;2.37;84.03;97823.47;5063091;27;45404;-85
2020/12/02 09:42:08;;;;;;;26.77;15.40;;;;;;;2.38;83.55;97812.03;5066333;27;45529;-86
2020/12/02 09:44:35;;;;;;;24.25;13.80;;;;;;;2.53;83.07;97820.53;5069547;28;45481;-85
2020/12/02 09:47:02;;;;;;;22.17;14.23;;;;;;;2.40;82.87;97813.56;5069463;28;45459;-85
2020/12/02 09:49:31;;;;;;;25.60;14.50;;;;;;;2.48;83.12;97805.13;5044609;28;45432;-86
2020/12/02 09:52:08;;;;;;;23.35;13.52;;;;;;;2.57;82.60;97808.84;5068882;28;45406;-85
2020/12/02 09:54:43;;;;;;;24.00;14.10;;;;;;;2.37;83.56;97805.13;5065334;28;45372;-85
2020/12/02 09:57:14;;;;;;;22.05;13.50;;;;;;;2.63;82.75;97805.75;5061764;27;45341;-84
2020/12/02 09:59:40;;;;;;;25.65;15.35;;;;;;;2.70;81.98;97801.72;5055677;27;45372;-85
2020/12/02 10:02:32;;;;;;;23.90;13.57;;;;;;;2.66;81.70;97792.41;5068360;28;45646;-85
2020/12/02 10:05:06;;;;;;;29.55;14.75;;;;;;;2.38;83.21;97794.47;5058144;28;45625;-83
2020/12/02 10:07:41;;;;;;;22.85;14.27;;;;;;;2.61;82.76;97792.75;5062512;28;45471;-84
2020/12/02 10:10:38;;;;;;;24.63;13.27;;;;;;;2.55;82.98;97787.13;5058444;28;45470;-85
2020/12/02 10:13:16;;;;;;;21.55;12.48;;;;;;;2.66;82.26;97783.69;5056285;28;45320;-86
2020/12/02 10:15:54;;;;;;;21.50;12.05;;;;;;;2.70;81.78;97778.09;5060668;28;46576;-85
2020/12/02 10:18:41;;;;;;;24.35;13.40;;;;;;;2.59;84.16;97771.03;5055174;28;45622;-84
2020/12/02 10:21:57;;;;;;;19.50;12.18;;;;;;;2.69;82.95;97778.19;5061414;28;45389;-84
2020/12/02 10:24:39;;;;;;;22.48;12.75;;;;;;;2.81;82.00;97785.13;5015779;28;45573;-85
2020/12/02 10:27:31;;;;;;;21.52;11.90;;;;;;;2.83;81.57;97774.53;5007350;28;46390;-84
2020/12/02 10:30:18;;;;;;;21.35;12.25;;;;;;;2.58;83.91;97771.97;5040063;28;45466;-85
2020/12/02 10:33:23;;;;;;;23.60;12.98;;;;;;;2.77;82.82;97760.06;5060367;28;45495;-86
2020/12/02 10:35:49;;;;;;;23.00;12.45;;;;;;;2.79;82.35;97759.97;5060278;28;45453;-84
2020/12/02 10:38:30;;;;;;;22.10;12.32;;;;;;;2.81;83.32;97752.78;5060323;28;46520;-86
2020/12/02 10:41:20;;;;;;;22.23;12.70;;;;;;;2.77;82.01;97737.28;5058641;28;45665;-83
2020/12/02 10:44:12;;;;;;;19.35;12.15;;;;;;;2.86;82.05;97735.69;5054035;28;45542;-85
2020/12/02 10:47:18;;;;;;;26.75;13.57;;;;;;;2.87;84.23;97732.13;5057721;28;45683;-85
2020/12/02 10:49:45;;;;;;;20.95;12.57;;;;;;;2.71;84.53;97740.38;5049338;28;45668;-87
2020/12/02 10:52:14;;;;;;;21.95;11.20;;;;;;;2.92;82.78;97729.97;5062402;28;45300;-86
2020/12/02 10:54:44;;;;;;;21.70;12.50;;;;;;;3.07;82.40;97729.72;5069528;28;45323;-85
2020/12/02 10:57:18;;;;;;;21.35;12.93;;;;;;;2.99;84.43;97726.84;5072422;28;45407;-79
2020/12/02 10:59:51;;;;;;;31.83;18.85;;;;;;;2.71;84.96;97731.66;5051008;28;46081;-79
2020/12/02 11:02:21;;;;;;;19.92;12.23;;;;;;;2.95;82.60;97722.81;5058779;28;45484;-81
2020/12/02 11:04:47;;;;;;;23.70;14.02;;;;;;;3.03;84.44;97721.25;5055600;28;45387;-79
2020/12/02 11:07:28;;;;;;;20.33;11.77;;;;;;;3.01;83.65;97722.31;5062029;28;45415;-79
2020/12/02 11:09:53;;;;;;;;;;;;;;;2.93;84.89;97725.56;5061088;28;46249;-80
2020/12/02 11:12:46;;;;;;;19.80;12.88;;;;;;;3.24;82.80;97720.50;5058608;28;45396;-80
2020/12/02 11:15:31;;;;;;;23.67;15.38;;;;;;;3.08;84.04;97709.53;5059676;28;45751;-81
2020/12/02 11:18:05;;;;;;;22.92;15.07;;;;;;;3.15;85.59;97713.34;5056678;28;45465;-78
2020/12/02 11:20:47;;;;;;;21.60;12.95;;;;;;;3.34;83.86;97713.53;5058616;28;46169;-79
2020/12/02 11:23:27;;;;;;;20.38;11.30;;;;;;;3.41;82.12;97708.63;5059002;28;45326;-79
2020/12/02 11:26:10;;;;;;;28.42;13.82;;;;;;;3.44;82.19;97699.66;5058799;28;45428;-79
2020/12/02 11:28:40;;;;;;;24.25;13.70;;;;;;;3.42;82.80;97707.69;5058727;28;45482;-79
2020/12/02 11:31:31;;;;;;;24.02;13.45;;;;;;;3.16;85.36;97701.88;5061504;28;48216;-79
2020/12/02 11:34:07;;;;;;;20.80;12.52;;;;;;;3.40;83.47;97693.81;5058589;28;45561;-78
2020/12/02 11:36:48;;;;;;;21.27;11.63;;;;;;;3.44;81.60;97689.13;5058564;28;45386;-78
2020/12/02 11:39:19;;;;;;;19.58;11.02;;;;;;;3.41;82.24;97694.66;5059671;28;45297;-78
2020/12/02 11:41:58;;;;;;;20.33;11.52;;;;;;;3.46;81.87;97689.84;5059541;28;45469;-79
2020/12/02 11:44:36;;;;;;;20.77;10.93;;;;;;;3.27;82.72;97678.19;5059115;28;45231;-78
2020/12/02 11:47:12;;;;;;;19.02;11.40;;;;;;;3.40;82.77;97687.72;5058879;28;45381;-78
2020/12/02 11:49:44;;;;;;;21.75;12.02;;;;;;;3.38;82.25;97682.59;5058791;28;45399;-78